Startpagina
METAR-TAF:

METAR-TAF

Vliegvelden :

Khartoem, Soedan

Luchthaven van Khartoem

breedte: 15-36N, lengte: 032-33E, hoogte: 382 m

Actueel weer

Dit bericht is 17 minuten geleden gemaakt, om 16:30 UTC
Wind 5 kt uit het noordwesten
Temperatuur 37°C
Vochtigheid 7%
Druk 1009 hPa
Zicht 10 km of meer
geen wolken onder 1500 m en geen cumulonimbus

METAR: HSSS 271630Z 32005KT CAVOK 37/M05 Q1009 NOSIG

Tijdstip: 19:47 (16:47 UTC)

Verwachting

Dit bericht is 5 uur en het 47 minuten geleden gemaakt, om 11:00 UTC
Verwachting geldig van 27 om 12 UTC tot 28 om 18 UTC
Wind 12 kt uit het noordnoordwesten met uitschieters tot 22 kt
Zicht 10 km of meer
geen wolken onder 1500 m en geen cumulonimbus
Tijdelijke
van 28 om 04 UTC tot 28 om 07 UTC
Zicht: 6000 m

TAF: HSSS 271100Z 2712/2818 34012G22KT CAVOK TEMPO 2804/2807 6000

Waarnemingen en weersverwachtingen van meer dan 4000 vliegvelden (METAR en TAF).

De beschikbare stations zijn de gele en rode punten op de kaart.

Ga met uw muis naar het station om de naam te zien.

Klik dan om waarnemingen en weersverwachtingen te zien.

kaart wijzigen: klik op de groene knoppen met een zwart kruis om in te zoomen, op de groene knop met een streepje om uit te zoomen of op de groene pijlen voor aangrenzende kaarten.


METAR-TAF: